sensor_id;sensor_type;location;lat;lon;timestamp;pressure;altitude;pressure_sealevel;temperature;humidity
27643;BME280;15053;48.618;10.024;2022-09-09T00:02:27;94044.03;;;15.65;68.39
27643;BME280;15053;48.618;10.024;2022-09-09T00:04:59;94039.97;;;15.67;68.24
27643;BME280;15053;48.618;10.024;2022-09-09T00:07:47;94038.56;;;15.70;68.09
27643;BME280;15053;48.618;10.024;2022-09-09T00:10:39;94045.03;;;15.72;67.69
27643;BME280;15053;48.618;10.024;2022-09-09T00:16:21;94039.91;;;15.76;67.73
27643;BME280;15053;48.618;10.024;2022-09-09T00:21:36;94030.03;;;15.73;67.71
27643;BME280;15053;48.618;10.024;2022-09-09T00:24:29;94034.66;;;15.76;67.73
27643;BME280;15053;48.618;10.024;2022-09-09T00:27:06;94028.63;;;15.75;67.54
27643;BME280;15053;48.618;10.024;2022-09-09T00:32:17;94028.19;;;15.73;67.73
27643;BME280;15053;48.618;10.024;2022-09-09T00:34:55;94026.44;;;15.77;66.59
27643;BME280;15053;48.618;10.024;2022-09-09T00:37:24;94035.66;;;15.83;66.52
27643;BME280;15053;48.618;10.024;2022-09-09T00:39:59;94036.41;;;15.84;67.05
27643;BME280;15053;48.618;10.024;2022-09-09T00:42:33;94034.00;;;15.79;67.35
27643;BME280;15053;48.618;10.024;2022-09-09T00:45:11;94037.47;;;15.71;67.44
27643;BME280;15053;48.618;10.024;2022-09-09T00:47:52;94034.41;;;15.69;67.35
27643;BME280;15053;48.618;10.024;2022-09-09T00:50:38;94030.03;;;15.73;67.17
27643;BME280;15053;48.618;10.024;2022-09-09T00:55:50;94027.84;;;15.75;66.88
27643;BME280;15053;48.618;10.024;2022-09-09T00:58:22;94034.66;;;15.76;67.07
27643;BME280;15053;48.618;10.024;2022-09-09T01:01:11;94038.63;;;15.82;66.76
27643;BME280;15053;48.618;10.024;2022-09-09T01:03:46;94045.38;;;15.83;66.50
27643;BME280;15053;48.618;10.024;2022-09-09T01:06:16;94041.97;;;15.82;66.52
27643;BME280;15053;48.618;10.024;2022-09-09T01:11:43;94035.94;;;15.70;66.12
27643;BME280;15053;48.618;10.024;2022-09-09T01:17:01;94034.03;;;15.38;67.55
27643;BME280;15053;48.618;10.024;2022-09-09T01:19:48;94036.09;;;15.32;68.08
27643;BME280;15053;48.618;10.024;2022-09-09T01:22:30;94033.00;;;15.30;68.40
27643;BME280;15053;48.618;10.024;2022-09-09T01:25:19;94029.81;;;15.24;68.17
27643;BME280;15053;48.618;10.024;2022-09-09T01:28:01;94026.28;;;15.20;68.47
27643;BME280;15053;48.618;10.024;2022-09-09T01:30:30;94024.31;;;15.17;69.07
27643;BME280;15053;48.618;10.024;2022-09-09T01:32:59;94018.28;;;15.17;68.95
27643;BME280;15053;48.618;10.024;2022-09-09T01:35:45;94022.75;;;15.16;69.16
27643;BME280;15053;48.618;10.024;2022-09-09T01:38:13;94026.94;;;15.17;69.21
27643;BME280;15053;48.618;10.024;2022-09-09T01:40:41;94021.25;;;15.15;69.31
27643;BME280;15053;48.618;10.024;2022-09-09T01:43:08;94020.03;;;15.13;69.18
27643;BME280;15053;48.618;10.024;2022-09-09T01:45:37;94015.88;;;15.12;69.21
27643;BME280;15053;48.618;10.024;2022-09-09T01:48:04;94015.22;;;15.15;68.93
27643;BME280;15053;48.618;10.024;2022-09-09T01:50:41;94020.47;;;15.15;69.32
27643;BME280;15053;48.618;10.024;2022-09-09T01:53:08;94017.41;;;15.13;69.03
27643;BME280;15053;48.618;10.024;2022-09-09T01:55:40;94018.94;;;15.14;69.02
27643;BME280;15053;48.618;10.024;2022-09-09T02:03:57;94017.84;;;15.15;69.31
27643;BME280;15053;48.618;10.024;2022-09-09T02:06:30;94017.50;;;15.16;69.02
27643;BME280;15053;48.618;10.024;2022-09-09T02:09:10;94011.53;;;15.16;69.13
27643;BME280;15053;48.618;10.024;2022-09-09T02:11:38;94015.88;;;15.12;69.47
27643;BME280;15053;48.618;10.024;2022-09-09T02:14:17;94013.09;;;15.08;69.50
27643;BME280;15053;48.618;10.024;2022-09-09T02:16:52;94010.25;;;15.01;69.66
27643;BME280;15053;48.618;10.024;2022-09-09T02:19:32;94006.25;;;14.95;69.82
27643;BME280;15053;48.618;10.024;2022-09-09T02:22:31;94005.88;;;14.85;70.28
27643;BME280;15053;48.618;10.024;2022-09-09T02:25:02;94011.75;;;14.82;70.46
27643;BME280;15053;48.618;10.024;2022-09-09T02:27:33;94013.34;;;14.74;70.39
27643;BME280;15053;48.618;10.024;2022-09-09T02:30:03;94015.38;;;14.68;70.69
27643;BME280;15053;48.618;10.024;2022-09-09T02:32:45;94002.78;;;14.62;70.67
27643;BME280;15053;48.618;10.024;2022-09-09T02:35:18;94000.34;;;14.57;70.80
27643;BME280;15053;48.618;10.024;2022-09-09T02:37:46;94003.00;;;14.48;71.53
27643;BME280;15053;48.618;10.024;2022-09-09T02:40:15;94003.19;;;14.43;71.43
27643;BME280;15053;48.618;10.024;2022-09-09T02:42:48;94007.22;;;14.41;71.37
27643;BME280;15053;48.618;10.024;2022-09-09T02:45:19;94008.63;;;14.38;71.66
27643;BME280;15053;48.618;10.024;2022-09-09T02:50:48;94011.41;;;14.33;71.69
27643;BME280;15053;48.618;10.024;2022-09-09T02:53:34;94012.19;;;14.34;72.02
27643;BME280;15053;48.618;10.024;2022-09-09T02:56:12;94004.78;;;14.36;72.26
27643;BME280;15053;48.618;10.024;2022-09-09T02:58:43;94008.00;;;14.41;72.75
27643;BME280;15053;48.618;10.024;2022-09-09T03:01:10;94012.84;;;14.51;72.80
27643;BME280;15053;48.618;10.024;2022-09-09T03:03:38;94015.44;;;14.60;72.67
27643;BME280;15053;48.618;10.024;2022-09-09T03:06:08;94025.53;;;14.70;72.78
27643;BME280;15053;48.618;10.024;2022-09-09T03:08:36;94019.81;;;14.76;72.04
27643;BME280;15053;48.618;10.024;2022-09-09T03:11:03;94019.13;;;14.88;71.57
27643;BME280;15053;48.618;10.024;2022-09-09T03:13:34;94018.31;;;14.96;70.95
27643;BME280;15053;48.618;10.024;2022-09-09T03:16:00;94021.16;;;15.03;70.82
27643;BME280;15053;48.618;10.024;2022-09-09T03:18:31;94021.75;;;15.09;71.02
27643;BME280;15053;48.618;10.024;2022-09-09T03:20:58;94012.59;;;15.15;71.21
27643;BME280;15053;48.618;10.024;2022-09-09T03:23:26;94003.75;;;15.19;71.20
27643;BME280;15053;48.618;10.024;2022-09-09T03:25:52;94000.50;;;15.22;71.34
27643;BME280;15053;48.618;10.024;2022-09-09T03:28:29;94002.03;;;15.23;71.50
27643;BME280;15053;48.618;10.024;2022-09-09T03:31:03;94005.75;;;15.22;71.32
27643;BME280;15053;48.618;10.024;2022-09-09T03:33:34;94014.06;;;15.24;71.72
27643;BME280;15053;48.618;10.024;2022-09-09T03:36:04;94005.09;;;15.25;71.64
27643;BME280;15053;48.618;10.024;2022-09-09T03:38:31;94004.03;;;15.26;71.48
27643;BME280;15053;48.618;10.024;2022-09-09T03:40:59;94002.91;;;15.27;71.69
27643;BME280;15053;48.618;10.024;2022-09-09T03:43:28;94003.38;;;15.29;71.75
27643;BME280;15053;48.618;10.024;2022-09-09T03:45:55;94002.91;;;15.27;71.29
27643;BME280;15053;48.618;10.024;2022-09-09T03:48:26;94001.50;;;15.30;70.99
27643;BME280;15053;48.618;10.024;2022-09-09T03:50:55;94007.22;;;15.32;70.83
27643;BME280;15053;48.618;10.024;2022-09-09T03:53:28;94008.44;;;15.34;70.76
27643;BME280;15053;48.618;10.024;2022-09-09T03:55:57;94014.47;;;15.35;70.02
27643;BME280;15053;48.618;10.024;2022-09-09T03:58:27;94020.44;;;15.35;69.67
27643;BME280;15053;48.618;10.024;2022-09-09T04:01:05;94022.00;;;15.36;69.19
27643;BME280;15053;48.618;10.024;2022-09-09T04:03:33;94017.19;;;15.38;69.52
27643;BME280;15053;48.618;10.024;2022-09-09T04:06:01;94018.41;;;15.41;69.54
27643;BME280;15053;48.618;10.024;2022-09-09T04:08:30;94019.16;;;15.42;69.80
27643;BME280;15053;48.618;10.024;2022-09-09T04:11:02;94017.66;;;15.41;69.47
27643;BME280;15053;48.618;10.024;2022-09-09T04:13:32;94024.41;;;15.42;69.42
27643;BME280;15053;48.618;10.024;2022-09-09T04:16:02;94022.91;;;15.41;69.28
27643;BME280;15053;48.618;10.024;2022-09-09T04:18:32;94025.69;;;15.35;69.50
27643;BME280;15053;48.618;10.024;2022-09-09T04:20:59;94040.69;;;15.35;69.86
27643;BME280;15053;48.618;10.024;2022-09-09T04:23:28;94037.31;;;15.34;70.17
27643;BME280;15053;48.618;10.024;2022-09-09T04:25:58;94044.25;;;15.30;70.90
27643;BME280;15053;48.618;10.024;2022-09-09T04:28:28;94047.09;;;15.25;71.60
27643;BME280;15053;48.618;10.024;2022-09-09T04:30:56;94038.19;;;15.18;72.21
27643;BME280;15053;48.618;10.024;2022-09-09T04:33:24;94045.16;;;15.14;72.84
27643;BME280;15053;48.618;10.024;2022-09-09T04:35:53;94039.97;;;15.05;73.74
27643;BME280;15053;48.618;10.024;2022-09-09T04:38:21;94035.38;;;15.02;74.47
27643;BME280;15053;48.618;10.024;2022-09-09T04:40:51;94033.41;;;14.99;75.13
27643;BME280;15053;48.618;10.024;2022-09-09T04:43:21;94029.88;;;14.95;75.96
27643;BME280;15053;48.618;10.024;2022-09-09T04:45:50;94020.91;;;14.96;76.06
27643;BME280;15053;48.618;10.024;2022-09-09T04:48:24;94017.66;;;14.99;76.64
27643;BME280;15053;48.618;10.024;2022-09-09T04:50:59;94019.19;;;15.00;76.94
27643;BME280;15053;48.618;10.024;2022-09-09T04:53:28;94025.91;;;15.10;77.11
27643;BME280;15053;48.618;10.024;2022-09-09T04:56:06;94020.81;;;15.13;77.82
27643;BME280;15053;48.618;10.024;2022-09-09T04:58:38;94030.31;;;15.18;77.89
27643;BME280;15053;48.618;10.024;2022-09-09T05:01:08;94023.66;;;15.20;78.58
27643;BME280;15053;48.618;10.024;2022-09-09T05:03:37;94023.66;;;15.20;78.69
27643;BME280;15053;48.618;10.024;2022-09-09T05:06:09;94024.94;;;15.14;78.96
27643;BME280;15053;48.618;10.024;2022-09-09T05:08:37;94034.16;;;15.20;79.47
27643;BME280;15053;48.618;10.024;2022-09-09T05:11:20;94032.75;;;15.23;80.02
27643;BME280;15053;48.618;10.024;2022-09-09T05:13:47;94036.59;;;15.25;79.75
27643;BME280;15053;48.618;10.024;2022-09-09T05:16:14;94031.78;;;15.27;79.79
27643;BME280;15053;48.618;10.024;2022-09-09T05:18:41;94023.47;;;15.25;80.56
27643;BME280;15053;48.618;10.024;2022-09-09T05:21:11;94021.38;;;15.19;80.95
27643;BME280;15053;48.618;10.024;2022-09-09T05:23:38;94025.22;;;15.21;81.15
27643;BME280;15053;48.618;10.024;2022-09-09T05:26:07;94033.34;;;15.28;80.85
27643;BME280;15053;48.618;10.024;2022-09-09T05:28:38;94038.72;;;15.32;80.46
27643;BME280;15053;48.618;10.024;2022-09-09T05:31:06;94041.44;;;15.35;80.36
27643;BME280;15053;48.618;10.024;2022-09-09T05:33:40;94046.38;;;15.37;80.47
27643;BME280;15053;48.618;10.024;2022-09-09T05:36:09;94040.56;;;15.31;80.07
27643;BME280;15053;48.618;10.024;2022-09-09T05:38:37;94055.03;;;15.38;80.29
27643;BME280;15053;48.618;10.024;2022-09-09T05:41:04;94044.97;;;15.40;80.21
27643;BME280;15053;48.618;10.024;2022-09-09T05:43:31;94046.06;;;15.38;80.37
27643;BME280;15053;48.618;10.024;2022-09-09T05:46:07;94044.53;;;15.38;80.26
27643;BME280;15053;48.618;10.024;2022-09-09T05:48:36;94055.91;;;15.42;80.06
27643;BME280;15053;48.618;10.024;2022-09-09T05:51:05;94050.78;;;15.45;80.21
27643;BME280;15053;48.618;10.024;2022-09-09T05:53:35;94044.94;;;15.48;79.86
27643;BME280;15053;48.618;10.024;2022-09-09T05:56:10;94041.66;;;15.51;79.68
27643;BME280;15053;48.618;10.024;2022-09-09T05:58:38;94047.50;;;15.57;79.95
27643;BME280;15053;48.618;10.024;2022-09-09T06:01:13;94052.19;;;15.63;80.11
27643;BME280;15053;48.618;10.024;2022-09-09T06:03:43;94045.53;;;15.66;80.30
27643;BME280;15053;48.618;10.024;2022-09-09T06:06:12;94042.28;;;15.69;79.81
27643;BME280;15053;48.618;10.024;2022-09-09T06:08:41;94043.94;;;15.73;79.97
27643;BME280;15053;48.618;10.024;2022-09-09T06:11:29;94048.22;;;15.78;79.30
27643;BME280;15053;48.618;10.024;2022-09-09T06:13:58;94038.34;;;15.75;79.09
27643;BME280;15053;48.618;10.024;2022-09-09T06:16:28;94047.56;;;15.81;79.60
27643;BME280;15053;48.618;10.024;2022-09-09T06:18:56;94043.88;;;15.82;79.07
27643;BME280;15053;48.618;10.024;2022-09-09T06:21:26;94043.19;;;15.85;79.11
27643;BME280;15053;48.618;10.024;2022-09-09T06:23:54;94025.28;;;15.87;79.01
27643;BME280;15053;48.618;10.024;2022-09-09T06:26:32;94033.94;;;16.00;78.86
27643;BME280;15053;48.618;10.024;2022-09-09T06:29:01;94040.19;;;16.07;79.06
27643;BME280;15053;48.618;10.024;2022-09-09T06:31:31;94038.88;;;16.13;79.16
27643;BME280;15053;48.618;10.024;2022-09-09T06:34:07;94037.81;;;16.26;79.19
27643;BME280;15053;48.618;10.024;2022-09-09T06:36:40;94042.19;;;16.34;79.36
27643;BME280;15053;48.618;10.024;2022-09-09T06:39:07;94053.47;;;16.35;79.48
27643;BME280;15053;48.618;10.024;2022-09-09T06:41:41;94053.81;;;16.33;79.35
27643;BME280;15053;48.618;10.024;2022-09-09T06:44:25;94054.59;;;16.34;78.93
27643;BME280;15053;48.618;10.024;2022-09-09T06:46:57;94051.50;;;16.32;78.72
27643;BME280;15053;48.618;10.024;2022-09-09T06:49:25;94050.06;;;16.34;78.65
27643;BME280;15053;48.618;10.024;2022-09-09T06:51:51;94056.44;;;16.45;78.53
27643;BME280;15053;48.618;10.024;2022-09-09T06:54:20;94055.78;;;16.48;77.98
27643;BME280;15053;48.618;10.024;2022-09-09T06:56:48;94047.59;;;16.50;77.95
27643;BME280;15053;48.618;10.024;2022-09-09T06:59:22;94043.75;;;16.47;78.05
27643;BME280;15053;48.618;10.024;2022-09-09T07:01:51;94049.09;;;16.51;78.03
27643;BME280;15053;48.618;10.024;2022-09-09T07:04:21;94058.69;;;16.56;77.83
27643;BME280;15053;48.618;10.024;2022-09-09T07:06:48;94057.00;;;16.51;77.61
27643;BME280;15053;48.618;10.024;2022-09-09T07:09:20;94061.81;;;16.49;77.41
27643;BME280;15053;48.618;10.024;2022-09-09T07:11:50;94056.84;;;16.56;77.94
27643;BME280;15053;48.618;10.024;2022-09-09T07:14:20;94059.56;;;16.72;77.78
27643;BME280;15053;48.618;10.024;2022-09-09T07:16:53;94056.91;;;16.84;77.28
27643;BME280;15053;48.618;10.024;2022-09-09T07:19:25;94061.31;;;16.92;77.17
27643;BME280;15053;48.618;10.024;2022-09-09T07:21:53;94059.53;;;16.96;77.20
27643;BME280;15053;48.618;10.024;2022-09-09T07:24:22;94063.03;;;17.12;77.14
27643;BME280;15053;48.618;10.024;2022-09-09T07:26:50;94067.84;;;17.22;76.94
27643;BME280;15053;48.618;10.024;2022-09-09T07:29:19;94068.28;;;17.24;76.50
27643;BME280;15053;48.618;10.024;2022-09-09T07:31:48;94064.75;;;17.32;76.72
27643;BME280;15053;48.618;10.024;2022-09-09T07:34:20;94061.41;;;17.47;76.65
27643;BME280;15053;48.618;10.024;2022-09-09T07:36:47;94054.03;;;17.53;76.33
27643;BME280;15053;48.618;10.024;2022-09-09T07:39:16;94067.31;;;17.68;76.16
27643;BME280;15053;48.618;10.024;2022-09-09T07:41:48;94063.50;;;17.82;75.47
27643;BME280;15053;48.618;10.024;2022-09-09T07:44:20;94072.13;;;17.94;75.22
27643;BME280;15053;48.618;10.024;2022-09-09T07:47:07;94064.69;;;18.12;74.86
27643;BME280;15053;48.618;10.024;2022-09-09T07:49:38;94064.59;;;18.24;74.10
27643;BME280;15053;48.618;10.024;2022-09-09T07:52:07;94062.41;;;18.42;73.87
27643;BME280;15053;48.618;10.024;2022-09-09T07:54:34;94053.94;;;18.48;73.13
27643;BME280;15053;48.618;10.024;2022-09-09T07:57:04;94060.41;;;18.51;73.06
27643;BME280;15053;48.618;10.024;2022-09-09T07:59:33;94059.78;;;18.57;73.58
27643;BME280;15053;48.618;10.024;2022-09-09T08:02:01;94066.75;;;18.65;73.09
27643;BME280;15053;48.618;10.024;2022-09-09T08:04:30;94064.22;;;18.69;72.58
27643;BME280;15053;48.618;10.024;2022-09-09T08:06:59;94066.84;;;18.84;72.36
27643;BME280;15053;48.618;10.024;2022-09-09T08:09:29;94063.09;;;18.85;72.28
27643;BME280;15053;48.618;10.024;2022-09-09T08:12:03;94079.53;;;18.79;72.19
27643;BME280;15053;48.618;10.024;2022-09-09T08:14:32;94075.69;;;18.76;72.04
27643;BME280;15053;48.618;10.024;2022-09-09T08:16:59;94077.34;;;18.81;72.26
27643;BME280;15053;48.618;10.024;2022-09-09T08:19:27;94080.47;;;18.87;71.96
27643;BME280;15053;48.618;10.024;2022-09-09T08:21:58;94075.69;;;18.92;71.49
27643;BME280;15053;48.618;10.024;2022-09-09T08:24:24;94086.91;;;19.05;71.02
27643;BME280;15053;48.618;10.024;2022-09-09T08:26:51;94092.69;;;19.10;71.27
27643;BME280;15053;48.618;10.024;2022-09-09T08:29:21;94088.88;;;19.08;71.28
27643;BME280;15053;48.618;10.024;2022-09-09T08:31:52;94093.72;;;19.06;71.12
27643;BME280;15053;48.618;10.024;2022-09-09T08:34:21;94094.41;;;19.03;71.53
27643;BME280;15053;48.618;10.024;2022-09-09T08:36:50;94104.13;;;18.99;71.30
27643;BME280;15053;48.618;10.024;2022-09-09T08:39:21;94103.19;;;18.91;71.36
27643;BME280;15053;48.618;10.024;2022-09-09T08:50:17;94106.75;;;18.99;70.93
27643;BME280;15053;48.618;10.024;2022-09-09T08:52:56;94100.47;;;19.03;71.23
27643;BME280;15053;48.618;10.024;2022-09-09T08:55:41;94099.69;;;19.03;71.68
27643;BME280;15053;48.618;10.024;2022-09-09T08:58:14;94100.25;;;19.12;71.31
27643;BME280;15053;48.618;10.024;2022-09-09T09:09:13;94091.41;;;19.20;69.59
27643;BME280;15053;48.618;10.024;2022-09-09T09:11:52;94101.75;;;19.28;69.91
27643;BME280;15053;48.618;10.024;2022-09-09T09:14:24;94103.63;;;19.43;69.41
27643;BME280;15053;48.618;10.024;2022-09-09T09:19:28;94091.91;;;19.60;69.28
27643;BME280;15053;48.618;10.024;2022-09-09T09:22:06;94099.69;;;19.72;69.42
27643;BME280;15053;48.618;10.024;2022-09-09T09:24:51;94094.00;;;19.70;68.47
27643;BME280;15053;48.618;10.024;2022-09-09T09:30:19;94096.16;;;19.65;68.27
27643;BME280;15053;48.618;10.024;2022-09-09T09:33:05;94094.56;;;19.60;66.19
27643;BME280;15053;48.618;10.024;2022-09-09T09:35:35;94097.81;;;19.54;66.53
27643;BME280;15053;48.618;10.024;2022-09-09T09:38:26;94104.13;;;19.49;66.57
27643;BME280;15053;48.618;10.024;2022-09-09T09:41:14;94090.00;;;19.41;65.33
27643;BME280;15053;48.618;10.024;2022-09-09T09:43:41;94087.78;;;19.43;65.15
27643;BME280;15053;48.618;10.024;2022-09-09T09:46:23;94084.94;;;19.52;65.37
27643;BME280;15053;48.618;10.024;2022-09-09T09:49:02;94097.41;;;19.71;65.80
27643;BME280;15053;48.618;10.024;2022-09-09T09:51:32;94081.81;;;19.85;66.02
27643;BME280;15053;48.618;10.024;2022-09-09T09:54:14;94087.44;;;20.02;64.89
27643;BME280;15053;48.618;10.024;2022-09-09T09:56:47;94089.25;;;20.18;64.71
27643;BME280;15053;48.618;10.024;2022-09-09T10:02:25;94085.00;;;20.32;62.65
27643;BME280;15053;48.618;10.024;2022-09-09T10:05:03;94083.53;;;20.35;62.32
27643;BME280;15053;48.618;10.024;2022-09-09T10:07:31;94083.88;;;20.33;62.07
27643;BME280;15053;48.618;10.024;2022-09-09T10:09:59;94088.94;;;20.23;60.98
27643;BME280;15053;48.618;10.024;2022-09-09T10:12:52;94075.81;;;20.07;61.01
27643;BME280;15053;48.618;10.024;2022-09-09T10:18:30;94071.53;;;19.99;61.73
27643;BME280;15053;48.618;10.024;2022-09-09T10:26:59;94075.47;;;20.28;62.31
27643;BME280;15053;48.618;10.024;2022-09-09T10:29:51;94064.25;;;20.57;61.52
27643;BME280;15053;48.618;10.024;2022-09-09T10:33:16;94069.88;;;21.04;60.77
27643;BME280;15053;48.618;10.024;2022-09-09T10:35:54;94070.13;;;21.45;58.14
27643;BME280;15053;48.618;10.024;2022-09-09T10:38:34;94068.75;;;21.58;56.66
27643;BME280;15053;48.618;10.024;2022-09-09T10:44:00;94066.09;;;21.28;55.25
27643;BME280;15053;48.618;10.024;2022-09-09T10:49:21;94066.00;;;21.21;52.45
27643;BME280;15053;48.618;10.024;2022-09-09T10:52:04;94049.81;;;21.56;52.41
27643;BME280;15053;48.618;10.024;2022-09-09T10:54:57;94057.91;;;22.00;50.82
27643;BME280;15053;48.618;10.024;2022-09-09T10:57:49;94056.59;;;22.20;49.63
27643;BME280;15053;48.618;10.024;2022-09-09T11:00:20;94061.72;;;22.02;50.23
27643;BME280;15053;48.618;10.024;2022-09-09T11:03:05;94066.28;;;21.72;50.51
27643;BME280;15053;48.618;10.024;2022-09-09T11:05:44;94074.50;;;21.34;51.20
27643;BME280;15053;48.618;10.024;2022-09-09T11:08:28;94077.09;;;21.04;50.20
27643;BME280;15053;48.618;10.024;2022-09-09T11:14:50;94066.31;;;20.67;51.62
27643;BME280;15053;48.618;10.024;2022-09-09T11:17:22;94059.84;;;20.65;51.37
27643;BME280;15053;48.618;10.024;2022-09-09T11:19:50;94064.25;;;20.57;51.20
27643;BME280;15053;48.618;10.024;2022-09-09T11:22:33;94062.34;;;20.80;51.70
27643;BME280;15053;48.618;10.024;2022-09-09T11:25:23;94058.69;;;21.41;50.52
27643;BME280;15053;48.618;10.024;2022-09-09T11:44:40;94071.94;;;21.41;47.00
27643;BME280;15053;48.618;10.024;2022-09-09T11:47:28;94057.59;;;21.15;47.97
27643;BME280;15053;48.618;10.024;2022-09-09T11:50:09;94064.09;;;20.95;48.43
27643;BME280;15053;48.618;10.024;2022-09-09T11:52:37;94060.81;;;20.79;49.07
27643;BME280;15053;48.618;10.024;2022-09-09T11:57:57;94052.19;;;20.59;50.23
27643;BME280;15053;48.618;10.024;2022-09-09T12:03:04;94047.13;;;20.74;50.56
27643;BME280;15053;48.618;10.024;2022-09-09T12:05:41;94044.03;;;21.21;49.54
27643;BME280;15053;48.618;10.024;2022-09-09T12:08:16;94033.19;;;21.92;48.79
27643;BME280;15053;48.618;10.024;2022-09-09T12:10:57;94042.63;;;22.67;47.63
27643;BME280;15053;48.618;10.024;2022-09-09T12:13:26;94027.78;;;23.13;44.57
27643;BME280;15053;48.618;10.024;2022-09-09T12:15:55;94047.34;;;22.91;43.49
27643;BME280;15053;48.618;10.024;2022-09-09T12:21:06;94045.06;;;22.86;44.01
27643;BME280;15053;48.618;10.024;2022-09-09T12:23:45;94033.56;;;23.33;41.26
27643;BME280;15053;48.618;10.024;2022-09-09T12:26:30;94034.16;;;23.67;38.48
27643;BME280;15053;48.618;10.024;2022-09-09T12:39:51;94013.03;;;24.16;38.81
27643;BME280;15053;48.618;10.024;2022-09-09T12:42:21;94007.69;;;24.09;38.01
27643;BME280;15053;48.618;10.024;2022-09-09T12:44:52;94013.41;;;24.11;37.91
27643;BME280;15053;48.618;10.024;2022-09-09T12:47:23;94020.25;;;24.19;38.30
27643;BME280;15053;48.618;10.024;2022-09-09T12:49:55;94005.44;;;24.25;38.23
27643;BME280;15053;48.618;10.024;2022-09-09T12:52:27;93992.88;;;24.29;38.80
27643;BME280;15053;48.618;10.024;2022-09-09T12:54:58;94011.47;;;24.08;39.24
27643;BME280;15053;48.618;10.024;2022-09-09T12:57:35;94004.47;;;23.51;39.54
27643;BME280;15053;48.618;10.024;2022-09-09T13:00:18;94013.66;;;23.02;43.60
27643;BME280;15053;48.618;10.024;2022-09-09T13:02:57;94008.78;;;22.57;45.14
27643;BME280;15053;48.618;10.024;2022-09-09T13:08:08;94021.78;;;21.88;47.58
27643;BME280;15053;48.618;10.024;2022-09-09T13:11:00;94016.09;;;21.56;48.31
27643;BME280;15053;48.618;10.024;2022-09-09T13:13:34;94011.88;;;21.52;48.54
27643;BME280;15053;48.618;10.024;2022-09-09T13:16:03;94003.97;;;21.55;47.96
27643;BME280;15053;48.618;10.024;2022-09-09T13:18:36;94008.75;;;21.76;48.02
27643;BME280;15053;48.618;10.024;2022-09-09T13:21:02;94002.28;;;21.73;47.46
27643;BME280;15053;48.618;10.024;2022-09-09T13:23:31;94005.13;;;21.58;47.43
27643;BME280;15053;48.618;10.024;2022-09-09T13:26:01;94004.75;;;21.56;47.00
27643;BME280;15053;48.618;10.024;2022-09-09T13:28:29;93998.56;;;21.45;47.60
27643;BME280;15053;48.618;10.024;2022-09-09T13:31:02;94009.69;;;21.28;47.61
27643;BME280;15053;48.618;10.024;2022-09-09T13:33:34;94000.00;;;21.09;46.77
27643;BME280;15053;48.618;10.024;2022-09-09T13:36:09;93998.22;;;20.90;47.56
27643;BME280;15053;48.618;10.024;2022-09-09T13:41:19;94008.78;;;20.64;48.75
27643;BME280;15053;48.618;10.024;2022-09-09T13:43:47;94001.78;;;20.52;49.13
27643;BME280;15053;48.618;10.024;2022-09-09T13:49:19;94009.19;;;20.21;49.86
27643;BME280;15053;48.618;10.024;2022-09-09T13:51:51;94002.25;;;20.13;50.69
27643;BME280;15053;48.618;10.024;2022-09-09T13:54:20;94004.50;;;20.11;50.36
27643;BME280;15053;48.618;10.024;2022-09-09T13:56:48;94009.72;;;20.07;50.71
27643;BME280;15053;48.618;10.024;2022-09-09T13:59:18;94002.13;;;20.06;50.81
27643;BME280;15053;48.618;10.024;2022-09-09T14:01:47;94000.63;;;20.05;50.31
27643;BME280;15053;48.618;10.024;2022-09-09T14:04:15;93987.03;;;20.06;50.13
27643;BME280;15053;48.618;10.024;2022-09-09T14:06:42;93999.69;;;20.39;50.51
27643;BME280;15053;48.618;10.024;2022-09-09T14:09:12;93986.81;;;20.60;50.19
27643;BME280;15053;48.618;10.024;2022-09-09T14:11:39;94003.56;;;20.71;49.73
27643;BME280;15053;48.618;10.024;2022-09-09T14:14:07;93988.13;;;21.29;50.40
27643;BME280;15053;48.618;10.024;2022-09-09T14:16:33;93981.22;;;22.24;49.33
27643;BME280;15053;48.618;10.024;2022-09-09T14:19:00;93970.00;;;22.96;47.75
27643;BME280;15053;48.618;10.024;2022-09-09T14:21:28;93983.94;;;23.55;46.20
27643;BME280;15053;48.618;10.024;2022-09-09T14:23:54;93971.50;;;23.80;45.24
27643;BME280;15053;48.618;10.024;2022-09-09T14:26:21;93969.63;;;24.05;44.39
27643;BME280;15053;48.618;10.024;2022-09-09T14:28:48;93978.06;;;24.21;44.24
27643;BME280;15053;48.618;10.024;2022-09-09T14:31:24;93971.97;;;24.52;43.10
27643;BME280;15053;48.618;10.024;2022-09-09T14:33:51;93972.72;;;24.74;42.90
27643;BME280;15053;48.618;10.024;2022-09-09T14:36:18;93981.88;;;24.80;41.03
27643;BME280;15053;48.618;10.024;2022-09-09T14:38:45;93979.19;;;24.59;41.62
27643;BME280;15053;48.618;10.024;2022-09-09T14:41:15;93979.59;;;24.61;41.36
27643;BME280;15053;48.618;10.024;2022-09-09T14:43:46;93977.28;;;24.74;40.74
27643;BME280;15053;48.618;10.024;2022-09-09T14:46:16;93993.28;;;24.74;40.30
27643;BME280;15053;48.618;10.024;2022-09-09T14:48:44;93979.94;;;24.74;40.47
27643;BME280;15053;48.618;10.024;2022-09-09T14:51:17;93985.28;;;24.88;40.94
27643;BME280;15053;48.618;10.024;2022-09-09T14:53:44;93988.31;;;25.04;40.67
27643;BME280;15053;48.618;10.024;2022-09-09T14:56:14;93979.91;;;25.09;41.07
27643;BME280;15053;48.618;10.024;2022-09-09T14:58:41;93990.59;;;24.77;41.52
27643;BME280;15053;48.618;10.024;2022-09-09T15:01:10;93990.19;;;24.15;40.78
27643;BME280;15053;48.618;10.024;2022-09-09T15:03:41;93999.09;;;23.43;42.62
27643;BME280;15053;48.618;10.024;2022-09-09T15:06:13;93993.22;;;23.10;43.26
27643;BME280;15053;48.618;10.024;2022-09-09T15:08:42;93995.72;;;22.88;44.37
27643;BME280;15053;48.618;10.024;2022-09-09T15:11:10;94003.44;;;22.53;45.18
27643;BME280;15053;48.618;10.024;2022-09-09T15:13:39;94001.25;;;22.18;45.77